Time;durP1;ratioP1;P1;durP2;ratioP2;P2;SDS_P1;SDS_P2;PMS_P1;PMS_P2;Temp;Humidity;BMP_temperature;BMP_pressure;BME280_temperature;BME280_humidity;BME280_pressure;Samples;Min_cycle;Max_cycle;Signal;HPM_P1;HPM_P2
2022/09/21 00:00:46;;;;;;;20.17;13.05;;;;;;;8.66;100.00;102526.31;5137118;27;20027;-44
2022/09/21 00:03:14;;;;;;;18.42;11.75;;;;;;;8.61;100.00;102532.84;5136583;27;20027;-46
2022/09/21 00:05:39;;;;;;;21.27;12.88;;;;;;;8.65;100.00;102530.59;5137401;27;20034;-45
2022/09/21 00:08:06;;;;;;;20.58;12.57;;;;;;;8.53;100.00;102534.91;5137538;27;20406;-44
2022/09/21 00:10:32;;;;;;;21.25;13.00;;;;;;;8.54;100.00;102535.00;5136514;27;20023;-46
2022/09/21 00:12:59;;;;;;;18.00;11.55;;;;;;;8.39;100.00;102528.84;5137074;27;20145;-44
2022/09/21 00:15:25;;;;;;;15.05;9.75;;;;;;;8.22;100.00;102533.78;5136705;27;20445;-44
2022/09/21 00:17:55;;;;;;;15.93;10.43;;;;;;;8.15;100.00;102530.69;5136440;27;20027;-44
2022/09/21 00:20:23;;;;;;;16.15;10.50;;;;;;;8.15;100.00;102533.28;5136934;27;20027;-44
2022/09/21 00:22:49;;;;;;;16.33;11.20;;;;;;;8.10;100.00;102530.38;5136302;27;20020;-44
2022/09/21 00:25:14;;;;;;;21.23;12.35;;;;;;;8.05;100.00;102526.63;5136571;27;20085;-48
2022/09/21 00:27:40;;;;;;;18.13;11.80;;;;;;;8.05;100.00;102529.19;5136839;27;20045;-47
2022/09/21 00:30:06;;;;;;;15.77;11.27;;;;;;;7.94;100.00;102520.78;5135881;27;20035;-44
2022/09/21 00:32:34;;;;;;;21.38;11.68;;;;;;;7.97;100.00;102520.97;5136737;27;20481;-46
2022/09/21 00:35:00;;;;;;;23.52;12.38;;;;;;;8.00;100.00;102527.97;5136667;27;20481;-46
2022/09/21 00:37:26;;;;;;;19.08;13.65;;;;;;;8.04;100.00;102518.03;5135746;27;20400;-47
2022/09/21 00:39:52;;;;;;;25.77;14.23;;;;;;;8.09;100.00;102526.03;5136375;27;20143;-44
2022/09/21 00:42:22;;;;;;;18.30;12.50;;;;;;;8.03;100.00;102525.59;5136119;27;20031;-44
2022/09/21 00:44:47;;;;;;;21.95;13.20;;;;;;;8.05;100.00;102524.91;5136085;27;20042;-45
2022/09/21 00:47:21;;;;;;;20.33;13.32;;;;;;;8.07;100.00;102528.50;5136135;27;20474;-44
2022/09/21 00:49:50;;;;;;;20.00;13.68;;;;;;;8.16;100.00;102523.09;5136471;27;20114;-44
2022/09/21 00:52:18;;;;;;;20.02;12.70;;;;;;;8.15;100.00;102534.16;5135427;27;20026;-45
2022/09/21 00:54:48;;;;;;;18.75;13.38;;;;;;;8.10;100.00;102529.50;5136148;27;20038;-44
2022/09/21 00:57:15;;;;;;;22.02;14.35;;;;;;;8.12;100.00;102528.81;5135133;27;20023;-44
2022/09/21 00:59:43;;;;;;;25.15;14.07;;;;;;;8.13;100.00;102533.13;5135405;27;20027;-46
2022/09/21 01:02:10;;;;;;;27.55;14.48;;;;;;;8.11;100.00;102529.59;5135792;27;20416;-45
2022/09/21 01:04:37;;;;;;;21.15;13.27;;;;;;;8.11;100.00;102532.16;5136025;27;20370;-44
2022/09/21 01:07:06;;;;;;;25.33;13.13;;;;;;;8.08;100.00;102522.56;5135394;27;20462;-47
2022/09/21 01:09:33;;;;;;;23.73;14.05;;;;;;;8.13;100.00;102530.56;5135960;27;20050;-46
2022/09/21 01:12:17;;;;;;;21.58;13.63;;;;;;;8.09;100.00;102531.16;5135139;27;20474;-44
2022/09/21 01:15:13;;;;;;;21.35;13.55;;;;;;;8.05;100.00;102527.50;5136375;27;20023;-45
2022/09/21 01:17:56;;;;;;;18.25;13.05;;;;;;;8.01;100.00;102533.22;5135881;27;20042;-43
2022/09/21 01:20:43;;;;;;;17.45;12.18;;;;;;;8.01;100.00;102535.78;5135042;27;20027;-44
2022/09/21 01:23:56;;;;;;;18.48;12.30;;;;;;;7.93;100.00;102530.91;5135708;27;20102;-45
2022/09/21 01:26:26;;;;;;;19.85;12.75;;;;;;;7.83;100.00;102531.97;5134946;27;20037;-44
2022/09/21 01:29:27;;;;;;;17.55;11.23;;;;;;;7.68;100.00;102536.94;5135878;27;20102;-47
2022/09/21 01:32:19;;;;;;;16.88;10.63;;;;;;;7.68;100.00;102539.50;5090036;27;20045;-45
2022/09/21 01:35:03;;;;;;;21.08;12.02;;;;;;;7.70;100.00;102531.13;5135049;27;20098;-45
2022/09/21 01:37:42;;;;;;;18.88;12.77;;;;;;;7.63;100.00;102531.53;5135209;27;20454;-44
2022/09/21 01:40:17;;;;;;;19.98;13.88;;;;;;;7.64;100.00;102533.28;5134391;27;20092;-45
2022/09/21 01:42:46;;;;;;;17.48;11.77;;;;;;;7.66;100.00;102530.84;5135213;27;20462;-44
2022/09/21 01:45:16;;;;;;;19.92;12.57;;;;;;;7.60;100.00;102527.84;5135311;27;20068;-44
2022/09/21 01:47:45;;;;;;;18.85;12.05;;;;;;;7.62;100.00;102531.38;5134614;27;20493;-44
2022/09/21 01:50:12;;;;;;;20.45;11.85;;;;;;;7.57;100.00;102524.28;5135033;27;20031;-46
2022/09/21 01:53:14;;;;;;;17.40;12.70;;;;;;;7.59;100.00;102526.94;5135146;27;20420;-44
2022/09/21 01:55:44;;;;;;;18.60;12.32;;;;;;;7.48;100.00;102533.91;5081125;27;20494;-45
2022/09/21 01:58:26;;;;;;;19.05;11.85;;;;;;;7.50;100.00;102539.13;5134923;27;20363;-44
2022/09/21 02:00:55;;;;;;;16.70;11.38;;;;;;;7.42;100.00;102541.16;5135072;27;20023;-45
2022/09/21 02:03:31;;;;;;;16.70;11.23;;;;;;;7.27;100.00;102537.53;5133918;27;20490;-45
2022/09/21 02:05:58;;;;;;;18.83;10.50;;;;;;;7.20;100.00;102533.66;5135176;27;20054;-44
2022/09/21 02:08:27;;;;;;;16.08;11.50;;;;;;;7.30;100.00;102530.06;5133951;27;20020;-44
2022/09/21 02:10:53;;;;;;;21.15;12.50;;;;;;;7.19;100.00;102522.50;5134942;27;20049;-45
2022/09/21 02:13:24;;;;;;;16.77;12.13;;;;;;;7.24;100.00;102531.41;5134594;27;20411;-45
2022/09/21 02:15:55;;;;;;;23.73;13.60;;;;;;;7.19;100.00;102535.34;5134090;27;20031;-46
2022/09/21 02:18:23;;;;;;;18.17;13.70;;;;;;;7.37;100.00;102524.56;5134238;27;20023;-44
2022/09/21 02:20:55;;;;;;;16.80;11.60;;;;;;;7.11;100.00;102528.75;5134537;27;20565;-44
2022/09/21 02:23:26;;;;;;;17.98;12.13;;;;;;;7.18;100.00;102533.53;5133635;27;20080;-45
2022/09/21 02:25:58;;;;;;;18.67;12.88;;;;;;;7.12;100.00;102534.78;5134969;27;20034;-44
2022/09/21 02:28:27;;;;;;;20.23;13.30;;;;;;;7.11;100.00;102533.88;5134333;27;20031;-45
2022/09/21 02:31:03;;;;;;;20.90;13.35;;;;;;;7.13;100.00;102534.91;5133923;27;20042;-44
2022/09/21 02:33:36;;;;;;;19.83;12.10;;;;;;;7.09;100.00;102536.34;5134316;27;20061;-44
2022/09/21 02:36:12;;;;;;;18.60;12.25;;;;;;;7.05;100.00;102538.56;5134569;27;20031;-44
2022/09/21 02:38:48;;;;;;;16.80;11.43;;;;;;;7.00;100.00;102527.13;5133544;27;20507;-44
2022/09/21 02:41:26;;;;;;;19.08;12.07;;;;;;;6.96;100.00;102531.13;5133917;27;20046;-46
2022/09/21 02:44:16;;;;;;;16.40;11.63;;;;;;;6.92;100.00;102527.47;5133477;27;20415;-43
2022/09/21 02:46:52;;;;;;;18.55;11.65;;;;;;;6.77;100.00;102526.34;5134315;27;20027;-44
2022/09/21 02:49:25;;;;;;;19.45;12.40;;;;;;;6.87;100.00;102531.38;5134003;27;20051;-44
2022/09/21 02:51:53;;;;;;;16.17;10.80;;;;;;;6.67;100.00;102527.34;5133637;27;20023;-44
2022/09/21 02:54:25;;;;;;;20.17;11.18;;;;;;;6.68;100.00;102533.38;5133967;27;20348;-44
2022/09/21 02:56:53;;;;;;;19.98;12.57;;;;;;;6.67;100.00;102529.91;5134199;27;20023;-44
2022/09/21 02:59:22;;;;;;;17.50;11.13;;;;;;;6.61;100.00;102531.13;5133045;27;20498;-45
2022/09/21 03:01:48;;;;;;;20.25;12.00;;;;;;;6.60;100.00;102530.25;5133935;27;20058;-45
2022/09/21 03:04:14;;;;;;;21.45;13.18;;;;;;;6.61;100.00;102528.59;5133683;27;20110;-44
2022/09/21 03:06:40;;;;;;;17.70;12.75;;;;;;;6.53;100.00;102528.94;5133408;27;20051;-44
2022/09/21 03:09:05;;;;;;;26.58;13.45;;;;;;;6.53;100.00;102523.81;5133938;27;20410;-44
2022/09/21 03:11:31;;;;;;;20.20;13.57;;;;;;;6.60;100.00;102527.69;5133158;27;20374;-44
2022/09/21 03:13:56;;;;;;;15.30;11.93;;;;;;;6.49;100.00;102531.13;5134006;28;20470;-48
2022/09/21 03:16:23;;;;;;;13.88;10.70;;;;;;;6.31;100.00;102533.25;5133510;28;20071;-47
2022/09/21 03:18:49;;;;;;;20.30;10.98;;;;;;;6.24;100.00;102534.47;5133110;28;20458;-45
2022/09/21 03:21:14;;;;;;;11.88;9.35;;;;;;;6.19;100.00;102533.22;5135770;27;20034;-45
2022/09/21 03:23:39;;;;;;;17.95;10.38;;;;;;;6.12;100.00;102534.44;5138314;27;20068;-45
2022/09/21 03:26:05;;;;;;;13.65;10.23;;;;;;;6.18;100.00;102536.56;5137509;27;20190;-45
2022/09/21 03:28:30;;;;;;;13.98;10.07;;;;;;;6.16;100.00;102533.88;5137934;27;20027;-45
2022/09/21 03:30:56;;;;;;;13.48;10.43;;;;;;;5.99;100.00;102537.75;5137920;27;20019;-44
2022/09/21 03:33:24;;;;;;;16.08;12.75;;;;;;;6.08;100.00;102545.19;5137108;27;20524;-47
2022/09/21 03:35:50;;;;;;;19.75;11.23;;;;;;;6.05;100.00;102535.63;5138121;27;20030;-47
2022/09/21 03:38:18;;;;;;;16.13;10.32;;;;;;;5.97;100.00;102546.03;5137912;27;20437;-46
2022/09/21 03:40:47;;;;;;;14.75;10.15;;;;;;;5.90;100.00;102547.22;5136783;27;20061;-44
2022/09/21 03:43:14;;;;;;;15.32;10.25;;;;;;;5.85;100.00;102548.53;5137522;27;20042;-44
2022/09/21 03:45:41;;;;;;;16.52;11.20;;;;;;;5.86;100.00;102545.22;5137690;27;20051;-44
2022/09/21 03:48:06;;;;;;;14.82;11.00;;;;;;;5.81;100.00;102556.75;5136965;27;20027;-44
2022/09/21 03:50:32;;;;;;;18.50;11.73;;;;;;;5.83;100.00;102553.53;5137525;27;20022;-44
2022/09/21 03:52:57;;;;;;;14.88;10.95;;;;;;;5.71;100.00;102542.41;5137957;27;20027;-45
2022/09/21 03:55:23;;;;;;;15.63;10.23;;;;;;;5.74;100.00;102550.28;5136340;27;20031;-44
2022/09/21 03:57:48;;;;;;;15.00;11.25;;;;;;;5.79;100.00;102551.53;5137479;27;20027;-48
2022/09/21 04:00:14;;;;;;;14.30;12.02;;;;;;;5.79;100.00;102554.09;5137090;27;20064;-45
2022/09/21 04:02:40;;;;;;;14.63;11.07;;;;;;;5.76;100.00;102548.75;5136722;27;20027;-46
2022/09/21 04:05:08;;;;;;;15.98;11.20;;;;;;;5.72;100.00;102552.75;5137451;27;20470;-44
2022/09/21 04:07:34;;;;;;;14.52;11.38;;;;;;;5.75;100.00;102546.97;5137388;27;20023;-44
2022/09/21 04:10:04;;;;;;;15.43;11.18;;;;;;;5.70;100.00;102548.28;5136526;27;20583;-45
2022/09/21 04:12:31;;;;;;;15.80;11.25;;;;;;;5.68;100.00;102550.72;5136976;27;20023;-44
2022/09/21 04:14:57;;;;;;;17.00;13.70;;;;;;;5.73;100.00;102543.38;5136464;27;20029;-44
2022/09/21 04:17:22;;;;;;;23.60;13.93;;;;;;;5.68;100.00;102540.50;5137044;27;20019;-47
2022/09/21 04:19:48;;;;;;;17.90;12.68;;;;;;;5.65;100.00;102541.91;5137181;27;20031;-44
2022/09/21 04:22:13;;;;;;;22.42;14.77;;;;;;;5.71;100.00;102545.84;5136013;27;20031;-45
2022/09/21 04:24:39;;;;;;;19.85;15.05;;;;;;;5.68;100.00;102547.25;5137022;27;20023;-44
2022/09/21 04:27:08;;;;;;;22.10;16.45;;;;;;;5.67;100.00;102543.81;5136986;27;20044;-47
2022/09/21 04:29:34;;;;;;;20.75;14.75;;;;;;;5.68;100.00;102552.38;5136152;27;20023;-44
2022/09/21 04:32:00;;;;;;;19.70;15.05;;;;;;;5.68;100.00;102549.81;5136879;27;20023;-45
2022/09/21 04:34:25;;;;;;;15.60;12.45;;;;;;;5.46;100.00;102548.16;5136702;27;20242;-44
2022/09/21 04:36:52;;;;;;;14.55;11.23;;;;;;;5.46;100.00;102553.25;5135948;27;20034;-44
2022/09/21 04:39:17;;;;;;;19.57;13.10;;;;;;;5.48;100.00;102554.28;5136298;27;20068;-44
2022/09/21 04:41:43;;;;;;;26.13;15.13;;;;;;;5.55;100.00;102554.00;5136518;27;20051;-46
2022/09/21 04:44:08;;;;;;;18.80;14.15;;;;;;;5.61;100.00;102551.91;5135463;27;20462;-45
2022/09/21 04:46:33;;;;;;;15.15;12.45;;;;;;;5.45;100.00;102561.72;5136699;27;20016;-44
2022/09/21 04:48:59;;;;;;;15.30;12.38;;;;;;;5.46;100.00;102558.38;5136521;27;20119;-44
2022/09/21 04:51:24;;;;;;;16.00;12.52;;;;;;;5.42;100.00;102561.47;5135589;27;20035;-44
2022/09/21 04:53:50;;;;;;;16.33;12.30;;;;;;;5.39;100.00;102557.00;5136527;27;20023;-45
2022/09/21 04:56:16;;;;;;;15.70;11.48;;;;;;;5.27;100.00;102562.06;5136144;27;20026;-44
2022/09/21 04:58:42;;;;;;;13.27;11.48;;;;;;;5.23;100.00;102570.25;5135485;27;20027;-44
2022/09/21 05:01:07;;;;;;;18.02;11.90;;;;;;;5.15;100.00;102565.31;5136096;27;20023;-47
2022/09/21 05:03:32;;;;;;;17.05;11.25;;;;;;;5.09;100.00;102565.72;5136335;27;20113;-45
2022/09/21 05:05:58;;;;;;;17.73;11.40;;;;;;;5.08;100.00;102569.03;5135488;27;20032;-44
2022/09/21 05:11:12;;;;;;;15.52;11.05;;;;;;;4.99;100.00;102565.75;5135229;27;20034;-44
2022/09/21 05:13:41;;;;;;;12.57;8.93;;;;;;;4.95;100.00;102577.41;5136239;27;20037;-48
2022/09/21 05:16:08;;;;;;;12.93;8.55;;;;;;;4.93;100.00;102571.25;5135865;27;20030;-48
2022/09/21 05:18:33;;;;;;;15.82;9.00;;;;;;;4.85;100.00;102579.97;5135302;27;20055;-46
2022/09/21 05:21:00;;;;;;;12.07;7.90;;;;;;;4.81;100.00;102578.84;5135832;27;20062;-45
2022/09/21 05:23:28;;;;;;;11.23;8.68;;;;;;;4.76;100.00;102587.78;5135613;27;20082;-44
2022/09/21 05:25:54;;;;;;;12.30;8.88;;;;;;;4.80;100.00;102577.03;5135017;27;20023;-45
2022/09/21 05:28:20;;;;;;;13.20;8.57;;;;;;;4.70;100.00;102579.63;5135565;27;20019;-45
2022/09/21 05:31:08;;;;;;;10.90;7.78;;;;;;;4.67;100.00;102585.38;5135925;27;20102;-45
2022/09/21 05:33:34;;;;;;;12.65;8.40;;;;;;;4.73;100.00;102579.88;5134960;27;20076;-46
2022/09/21 05:36:17;;;;;;;11.98;9.20;;;;;;;4.70;100.00;102590.75;5135408;27;20030;-46
2022/09/21 05:38:42;;;;;;;16.42;9.60;;;;;;;4.70;100.00;102589.84;5135483;27;20027;-46
2022/09/21 05:41:08;;;;;;;11.95;8.93;;;;;;;4.59;100.00;102596.63;5134403;27;20027;-44
2022/09/21 05:43:33;;;;;;;12.85;9.23;;;;;;;4.61;100.00;102590.88;5134944;27;20025;-44
2022/09/21 05:46:10;;;;;;;13.02;9.15;;;;;;;4.63;100.00;102597.78;5135648;27;20413;-45
2022/09/21 05:48:40;;;;;;;17.95;10.07;;;;;;;4.61;100.00;102584.88;5135175;27;20027;-46
2022/09/21 05:51:39;;;;;;;12.65;10.32;;;;;;;4.75;100.00;102603.88;5135417;27;20110;-48
2022/09/21 05:54:47;;;;;;;18.33;13.10;;;;;;;4.86;100.00;102597.97;5123344;27;20035;-46
2022/09/21 05:57:18;;;;;;;16.15;13.05;;;;;;;4.93;100.00;102596.81;5121215;27;20043;-43
2022/09/21 06:00:00;;;;;;;20.23;14.25;;;;;;;5.06;100.00;102601.25;5134950;27;20493;-48
2022/09/21 06:02:42;;;;;;;17.50;13.52;;;;;;;5.10;100.00;102603.31;5113430;27;20046;-46
2022/09/21 06:05:13;;;;;;;16.70;12.85;;;;;;;5.11;100.00;102602.50;5113748;28;20049;-47
2022/09/21 06:07:38;;;;;;;15.38;12.52;;;;;;;5.22;100.00;102609.38;5113850;28;20031;-46
2022/09/21 06:10:04;;;;;;;18.25;13.73;;;;;;;5.26;100.00;102613.06;5114359;28;20022;-49
2022/09/21 06:12:29;;;;;;;17.65;14.30;;;;;;;5.29;100.00;102605.63;5113817;28;20031;-47
2022/09/21 06:14:55;;;;;;;18.60;15.10;;;;;;;5.35;100.00;102615.47;5113485;28;20030;-48
2022/09/21 06:17:21;;;;;;;25.05;18.20;;;;;;;5.49;100.00;102611.44;5113962;28;20020;-46
2022/09/21 06:19:46;;;;;;;25.25;19.58;;;;;;;5.58;100.00;102609.63;5114118;28;20106;-44
2022/09/21 06:22:11;;;;;;;24.08;19.55;;;;;;;5.66;100.00;102618.78;5112933;28;20028;-45
2022/09/21 06:24:36;;;;;;;26.80;19.60;;;;;;;5.72;100.00;102616.69;5114015;28;20419;-45
2022/09/21 06:27:02;;;;;;;32.90;24.70;;;;;;;5.88;100.00;102613.66;5113976;28;20475;-44
2022/09/21 06:29:27;;;;;;;29.58;23.05;;;;;;;5.97;100.00;102617.72;5112977;28;20028;-45
2022/09/21 06:31:52;;;;;;;35.65;25.15;;;;;;;6.07;100.00;102615.13;5113956;28;20024;-46
2022/09/21 06:34:18;;;;;;;30.92;24.63;;;;;;;6.12;100.00;102616.34;5113649;28;20023;-44
2022/09/21 06:36:44;;;;;;;33.20;24.60;;;;;;;6.17;100.00;102615.03;5113599;28;20019;-44
2022/09/21 06:39:10;;;;;;;31.27;23.20;;;;;;;6.22;100.00;102616.28;5113355;28;20498;-46
2022/09/21 06:41:35;;;;;;;33.67;24.48;;;;;;;6.31;100.00;102610.06;5113736;28;20111;-45
2022/09/21 06:44:01;;;;;;;33.13;23.80;;;;;;;6.38;100.00;102614.88;5112942;28;20080;-48
2022/09/21 06:46:26;;;;;;;41.10;25.90;;;;;;;6.47;100.00;102615.56;5113435;28;20028;-47
2022/09/21 06:48:52;;;;;;;48.22;32.15;;;;;;;6.77;100.00;102610.91;5113578;28;20024;-45
2022/09/21 06:51:19;;;;;;;53.53;33.10;;;;;;;6.95;100.00;102610.50;5112477;28;20019;-44
2022/09/21 06:53:45;;;;;;;46.17;32.88;;;;;;;7.09;100.00;102617.50;5113707;28;20023;-45
2022/09/21 06:56:11;;;;;;;42.38;31.65;;;;;;;7.20;100.00;102614.03;5112605;28;20031;-43
2022/09/21 06:58:37;;;;;;;34.50;27.50;;;;;;;7.28;100.00;102611.13;5112956;28;20047;-44
2022/09/21 07:01:11;;;;;;;39.15;26.90;;;;;;;7.53;100.00;102609.53;5113335;28;20394;-44
2022/09/21 07:03:37;;;;;;;39.00;26.80;;;;;;;7.75;100.00;102609.34;5112720;28;20028;-44
2022/09/21 07:06:02;;;;;;;36.28;23.48;;;;;;;8.02;100.00;102608.59;5113587;28;20027;-46
2022/09/21 07:08:28;;;;;;;34.53;21.55;;;;;;;8.24;100.00;102611.81;5113274;28;20024;-45
2022/09/21 07:10:57;;;;;;;31.42;21.63;;;;;;;8.30;100.00;102613.91;5112752;28;20027;-46
2022/09/21 07:13:22;;;;;;;30.05;18.13;;;;;;;8.50;100.00;102616.97;5113086;28;20028;-45
2022/09/21 07:15:47;;;;;;;22.55;15.65;;;;;;;8.67;100.00;102620.66;5113509;28;20031;-45
2022/09/21 07:18:13;;;;;;;21.85;15.38;;;;;;;8.69;100.00;102619.06;5108820;28;20442;-43
2022/09/21 07:20:40;;;;;;;25.75;16.23;;;;;;;8.73;100.00;102618.47;5118188;28;20574;-43
2022/09/21 07:23:15;;;;;;;26.17;16.75;;;;;;;8.85;100.00;102624.41;5120654;28;20476;-43
2022/09/21 07:25:42;;;;;;;28.73;15.10;;;;;;;9.02;100.00;102619.47;5116796;28;20028;-43
2022/09/21 07:28:09;;;;;;;20.33;13.63;;;;;;;9.28;100.00;102617.69;5116725;28;20039;-44
2022/09/21 07:30:35;;;;;;;18.98;12.43;;;;;;;9.49;100.00;102618.13;5126592;28;20488;-44
2022/09/21 07:33:01;;;;;;;22.13;12.80;;;;;;;9.71;100.00;102610.06;5126104;28;20030;-42
2022/09/21 07:35:26;;;;;;;21.02;13.32;;;;;;;9.77;100.00;102610.44;5121129;28;20031;-43
2022/09/21 07:37:51;;;;;;;20.05;12.88;;;;;;;9.77;100.00;102610.44;5125445;28;20023;-43
2022/09/21 07:40:16;;;;;;;19.77;12.98;;;;;;;9.91;100.00;102613.84;5116038;28;20496;-47
2022/09/21 07:42:43;;;;;;;19.92;13.02;;;;;;;10.09;100.00;102608.03;5115562;28;20028;-42
2022/09/21 07:45:09;;;;;;;23.02;12.48;;;;;;;10.20;100.00;102605.31;5118866;28;20027;-43
2022/09/21 07:47:35;;;;;;;21.33;12.05;;;;;;;10.33;100.00;102608.63;5122729;28;20054;-43
2022/09/21 07:50:00;;;;;;;28.38;12.00;;;;;;;10.44;100.00;102611.84;5126095;28;20047;-43
2022/09/21 07:52:26;;;;;;;21.90;11.00;;;;;;;10.61;100.00;102610.25;5116536;28;20034;-42
2022/09/21 07:54:51;;;;;;;17.35;10.85;;;;;;;10.56;100.00;102614.25;5124922;28;20024;-42
2022/09/21 08:00:00;;;;;;;19.20;9.57;;;;;;;10.90;100.00;102604.19;5118801;28;20524;-43
2022/09/21 08:02:26;;;;;;;15.70;11.05;;;;;;;10.86;100.00;102608.25;5114483;28;20032;-43
2022/09/21 08:04:52;;;;;;;17.58;9.85;;;;;;;11.13;100.00;102601.97;5123111;28;20026;-43
2022/09/21 08:07:18;;;;;;;17.73;9.45;;;;;;;11.12;100.00;102602.81;5126775;27;20019;-42
2022/09/21 08:09:44;;;;;;;18.40;9.52;;;;;;;11.24;100.00;102597.44;5125851;27;20034;-44
2022/09/21 08:12:09;;;;;;;15.05;9.45;;;;;;;11.32;100.00;102606.47;5123761;27;20028;-43
2022/09/21 08:14:35;;;;;;;13.25;8.35;;;;;;;11.58;100.00;102596.66;5132164;27;20023;-43
2022/09/21 08:17:00;;;;;;;15.38;8.32;;;;;;;11.73;97.69;102597.47;5120412;27;20028;-45
2022/09/21 08:19:26;;;;;;;15.73;7.35;;;;;;;11.90;95.24;102597.50;5115199;27;20398;-44
2022/09/21 08:21:52;;;;;;;18.77;8.18;;;;;;;11.76;99.77;102597.66;5126456;27;20042;-43
2022/09/21 08:24:18;;;;;;;13.85;7.32;;;;;;;12.03;98.15;102602.50;5127576;27;20378;-43
2022/09/21 08:26:44;;;;;;;15.43;6.97;;;;;;;11.93;97.40;102605.38;5132448;27;20466;-44
2022/09/21 08:29:09;;;;;;;16.80;7.15;;;;;;;12.28;93.66;102604.66;5121032;27;20026;-44
2022/09/21 08:31:34;;;;;;;13.55;6.35;;;;;;;12.18;96.11;102613.63;5124695;27;20050;-44
2022/09/21 08:34:00;;;;;;;14.13;6.45;;;;;;;12.48;90.88;102607.38;5128489;27;20029;-44
2022/09/21 08:36:26;;;;;;;12.30;5.97;;;;;;;12.38;95.00;102605.13;5131944;27;20015;-43
2022/09/21 08:38:51;;;;;;;12.55;4.72;;;;;;;12.79;91.32;102608.88;5118690;27;20047;-45
2022/09/21 08:41:18;;;;;;;13.90;4.80;;;;;;;12.67;89.63;102609.16;5123504;27;20490;-44
2022/09/21 08:43:49;;;;;;;14.15;4.97;;;;;;;12.67;93.85;102609.16;5117662;27;20047;-44
2022/09/21 08:46:18;;;;;;;9.70;4.07;;;;;;;12.96;84.94;102604.50;5130920;27;20031;-43
2022/09/21 08:48:49;;;;;;;13.90;3.83;;;;;;;13.03;84.54;102614.38;5127169;27;20031;-43
2022/09/21 08:51:23;;;;;;;12.48;5.00;;;;;;;13.27;87.50;102613.75;5120335;27;20128;-44
2022/09/21 08:53:55;;;;;;;11.98;4.50;;;;;;;13.34;81.51;102618.41;5132698;27;20023;-46
2022/09/21 08:56:22;;;;;;;11.70;4.70;;;;;;;13.33;87.01;102614.03;5119244;27;20012;-44
2022/09/21 08:58:47;;;;;;;15.52;4.57;;;;;;;13.70;86.71;102614.84;5130324;27;20028;-44
2022/09/21 09:01:18;;;;;;;14.82;4.88;;;;;;;13.80;88.81;102620.53;5117588;27;20154;-44
2022/09/21 09:04:10;;;;;;;12.80;4.35;;;;;;;14.00;83.04;102626.59;5118735;27;20031;-45
2022/09/21 09:07:12;;;;;;;11.63;5.57;;;;;;;14.21;87.52;102624.88;5115775;27;20058;-45
2022/09/21 09:10:10;;;;;;;14.60;5.00;;;;;;;14.80;82.63;102629.13;5120181;27;20494;-46
2022/09/21 09:12:53;;;;;;;12.25;4.50;;;;;;;15.00;80.83;102621.22;5127263;27;20114;-42
2022/09/21 09:15:28;;;;;;;10.25;4.10;;;;;;;15.11;75.88;102617.34;5121487;27;20066;-43
2022/09/21 09:18:00;;;;;;;11.15;4.40;;;;;;;15.46;76.45;102622.16;5125030;27;20019;-44
2022/09/21 09:20:52;;;;;;;12.27;3.70;;;;;;;15.66;77.11;102619.41;5131678;27;20511;-43
2022/09/21 09:23:45;;;;;;;9.48;3.50;;;;;;;16.16;75.39;102632.50;5122987;27;20076;-43
2022/09/21 09:26:19;;;;;;;8.82;2.42;;;;;;;16.21;69.05;102625.75;5107575;27;20035;-43
2022/09/21 09:28:57;;;;;;;7.70;2.13;;;;;;;16.42;66.33;102634.28;5128976;27;20046;-43
2022/09/21 09:31:35;;;;;;;8.50;2.53;;;;;;;17.03;64.46;102631.97;5122626;27;20057;-42
2022/09/21 09:34:23;;;;;;;9.27;2.78;;;;;;;17.28;64.24;102632.72;5122888;27;20023;-43
2022/09/21 09:37:04;;;;;;;7.95;2.47;;;;;;;17.81;62.88;102629.03;5115357;27;20076;-42
2022/09/21 09:39:30;;;;;;;12.05;2.92;;;;;;;18.14;58.46;102633.41;5114656;27;20086;-42
2022/09/21 09:42:14;;;;;;;8.80;2.60;;;;;;;19.00;58.83;102634.72;5118553;27;20059;-42
2022/09/21 09:44:58;;;;;;;7.85;1.90;;;;;;;19.77;58.48;102630.25;5123464;27;20115;-42
2022/09/21 09:47:31;;;;;;;10.05;2.60;;;;;;;19.51;54.12;102630.59;5125479;27;20032;-43
2022/09/21 09:50:14;;;;;;;8.30;2.30;;;;;;;19.36;49.75;102641.63;5113036;27;20024;-43
2022/09/21 09:52:42;;;;;;;7.63;2.03;;;;;;;18.85;50.80;102632.59;5129881;27;20042;-43
2022/09/21 09:55:19;;;;;;;7.68;2.40;;;;;;;19.17;53.53;102638.63;5118942;27;20031;-43
2022/09/21 09:57:46;;;;;;;8.95;2.38;;;;;;;19.87;49.65;102627.00;5129504;27;20381;-43
2022/09/21 10:00:14;;;;;;;12.00;2.60;;;;;;;20.26;47.68;102631.22;5118808;27;20028;-43
2022/09/21 10:02:51;;;;;;;11.25;2.17;;;;;;;20.55;50.32;102636.06;5115990;27;20055;-43
2022/09/21 10:05:33;;;;;;;7.10;2.47;;;;;;;20.70;49.72;102631.13;5127096;27;20023;-43
2022/09/21 10:07:59;;;;;;;8.20;2.10;;;;;;;19.86;48.71;102628.75;5126538;27;20075;-43
2022/09/21 10:10:27;;;;;;;8.02;2.10;;;;;;;20.01;49.32;102630.78;5117554;27;20027;-44
2022/09/21 10:12:53;;;;;;;8.90;2.15;;;;;;;19.37;48.56;102641.66;5115739;27;20019;-43
2022/09/21 10:15:22;;;;;;;8.35;2.15;;;;;;;18.62;48.14;102632.94;5120264;27;20708;-43
2022/09/21 10:17:56;;;;;;;7.80;2.25;;;;;;;18.25;51.29;102621.53;5129737;27;20034;-44
2022/09/21 10:20:21;;;;;;;12.23;2.40;;;;;;;17.88;53.95;102625.72;5117692;27;20063;-45
2022/09/21 10:22:53;;;;;;;7.70;1.80;;;;;;;17.77;52.53;102628.06;5129765;27;20062;-46
2022/09/21 10:25:19;;;;;;;7.80;2.20;;;;;;;17.36;51.82;102626.00;5120738;27;20061;-42
2022/09/21 10:27:50;;;;;;;6.53;2.10;;;;;;;17.20;55.02;102624.66;5121896;27;20055;-43
2022/09/21 10:30:40;;;;;;;8.23;1.83;;;;;;;18.04;55.95;102621.88;5128896;27;20067;-44
2022/09/21 10:33:19;;;;;;;7.88;1.73;;;;;;;18.01;54.19;102617.44;5117532;27;20029;-43
2022/09/21 10:35:49;;;;;;;10.35;2.28;;;;;;;17.43;54.52;102622.75;5123832;27;20413;-43
2022/09/21 10:38:19;;;;;;;9.50;2.05;;;;;;;17.20;52.63;102618.56;5118109;27;20027;-44
2022/09/21 10:40:46;;;;;;;6.75;1.73;;;;;;;17.10;51.51;102617.41;5130095;27;20078;-44
2022/09/21 10:43:44;;;;;;;6.55;1.17;;;;;;;17.60;52.12;102614.53;5118955;27;20088;-44
2022/09/21 10:46:10;;;;;;;8.00;1.55;;;;;;;19.25;47.42;102610.03;5067647;28;20071;-44
2022/09/21 10:48:36;;;;;;;8.52;1.48;;;;;;;20.31;44.17;102600.78;5129745;27;20114;-43
2022/09/21 10:51:03;;;;;;;5.78;1.73;;;;;;;20.49;44.33;102601.91;5119030;27;20107;-44
2022/09/21 10:53:32;;;;;;;6.38;1.27;;;;;;;19.97;45.75;102601.91;5121621;27;20023;-43
2022/09/21 10:56:04;;;;;;;9.43;1.90;;;;;;;19.69;43.93;102602.22;5119192;27;20779;-43
2022/09/21 10:58:31;;;;;;;6.22;1.33;;;;;;;19.13;42.70;102612.38;5129049;27;20100;-43
2022/09/21 11:01:20;;;;;;;5.45;1.40;;;;;;;19.22;45.63;102609.97;5117505;27;20027;-44
2022/09/21 11:03:57;;;;;;;7.90;1.40;;;;;;;18.83;44.53;102602.97;5124189;27;20478;-44
2022/09/21 11:06:45;;;;;;;9.20;1.70;;;;;;;19.27;48.26;102607.44;5121811;27;20031;-45
2022/09/21 11:09:26;;;;;;;5.53;1.13;;;;;;;19.61;42.80;102605.53;5119362;27;20025;-45
2022/09/21 11:12:15;;;;;;;4.57;1.00;;;;;;;19.09;46.92;102603.56;5120054;27;20055;-44
2022/09/21 11:14:55;;;;;;;9.68;1.90;;;;;;;19.26;47.10;102606.56;5115259;28;20112;-48
2022/09/21 11:17:39;;;;;;;6.22;1.50;;;;;;;18.91;48.58;102598.81;5124479;28;20046;-44
2022/09/21 11:20:18;;;;;;;10.07;2.20;;;;;;;18.68;49.52;102609.59;5127063;28;20034;-43
2022/09/21 11:22:56;;;;;;;7.95;2.03;;;;;;;18.54;47.63;102608.34;5124725;28;20031;-45
2022/09/21 11:25:31;;;;;;;11.80;2.58;;;;;;;18.28;48.80;102611.16;5126903;28;20023;-43
2022/09/21 11:28:05;;;;;;;9.65;1.60;;;;;;;18.01;48.61;102606.13;5120371;28;20460;-43
2022/09/21 11:31:04;;;;;;;7.72;1.90;;;;;;;17.96;50.38;102603.41;5129783;28;20076;-44
2022/09/21 11:33:44;;;;;;;9.25;2.03;;;;;;;17.38;49.08;102603.47;5119185;28;20059;-43